sensor_id;sensor_type;location;lat;lon;timestamp;pressure;altitude;pressure_sealevel;temperature;humidity
64544;BME280;50936;51.660;5.616;2022-07-21T00:00:24;101465.50;;;19.33;100.00
64544;BME280;50936;51.660;5.616;2022-07-21T00:02:55;101468.38;;;19.32;100.00
64544;BME280;50936;51.660;5.616;2022-07-21T00:05:23;101463.19;;;19.29;100.00
64544;BME280;50936;51.660;5.616;2022-07-21T00:07:52;101463.50;;;19.26;100.00
64544;BME280;50936;51.660;5.616;2022-07-21T00:10:22;101460.06;;;19.23;100.00
64544;BME280;50936;51.660;5.616;2022-07-21T00:12:51;101447.38;;;19.22;100.00
64544;BME280;50936;51.660;5.616;2022-07-21T00:15:20;101436.41;;;19.22;100.00
64544;BME280;50936;51.660;5.616;2022-07-21T00:17:48;101447.38;;;19.22;100.00
64544;BME280;50936;51.660;5.616;2022-07-21T00:20:16;101457.31;;;19.23;100.00
64544;BME280;50936;51.660;5.616;2022-07-21T00:22:43;101456.28;;;19.24;100.00
64544;BME280;50936;51.660;5.616;2022-07-21T00:25:12;101465.81;;;19.20;100.00
64544;BME280;50936;51.660;5.616;2022-07-21T00:27:41;101451.41;;;19.18;100.00
64544;BME280;50936;51.660;5.616;2022-07-21T00:30:09;101458.78;;;19.18;100.00
64544;BME280;50936;51.660;5.616;2022-07-21T00:32:38;101460.63;;;19.17;100.00
64544;BME280;50936;51.660;5.616;2022-07-21T00:35:06;101452.41;;;19.17;100.00
64544;BME280;50936;51.660;5.616;2022-07-21T00:37:36;101464.06;;;19.19;100.00
64544;BME280;50936;51.660;5.616;2022-07-21T00:40:05;101444.53;;;19.14;100.00
64544;BME280;50936;51.660;5.616;2022-07-21T00:42:34;101445.97;;;19.09;100.00
64544;BME280;50936;51.660;5.616;2022-07-21T00:45:04;101448.16;;;19.05;100.00
64544;BME280;50936;51.660;5.616;2022-07-21T00:47:32;101440.22;;;19.02;100.00
64544;BME280;50936;51.660;5.616;2022-07-21T00:50:07;101436.78;;;19.00;100.00
64544;BME280;50936;51.660;5.616;2022-07-21T00:52:37;101438.78;;;18.98;100.00
64544;BME280;50936;51.660;5.616;2022-07-21T00:55:05;101435.63;;;18.93;100.00
64544;BME280;50936;51.660;5.616;2022-07-21T00:57:33;101437.94;;;18.88;100.00
64544;BME280;50936;51.660;5.616;2022-07-21T01:00:03;101428.28;;;18.83;100.00
64544;BME280;50936;51.660;5.616;2022-07-21T01:02:38;101430.44;;;18.80;100.00
64544;BME280;50936;51.660;5.616;2022-07-21T01:05:09;101430.56;;;18.78;100.00
64544;BME280;50936;51.660;5.616;2022-07-21T01:07:43;101435.31;;;18.76;100.00
64544;BME280;50936;51.660;5.616;2022-07-21T01:10:13;101433.59;;;18.75;100.00
64544;BME280;50936;51.660;5.616;2022-07-21T01:12:41;101422.97;;;18.72;100.00
64544;BME280;50936;51.660;5.616;2022-07-21T01:15:11;101426.97;;;18.68;100.00
64544;BME280;50936;51.660;5.616;2022-07-21T01:17:40;101429.88;;;18.66;100.00
64544;BME280;50936;51.660;5.616;2022-07-21T01:20:11;101431.00;;;18.64;100.00
64544;BME280;50936;51.660;5.616;2022-07-21T01:22:43;101424.09;;;18.60;100.00
64544;BME280;50936;51.660;5.616;2022-07-21T01:25:12;101430.88;;;18.56;100.00
64544;BME280;50936;51.660;5.616;2022-07-21T01:27:40;101431.59;;;18.58;100.00
64544;BME280;50936;51.660;5.616;2022-07-21T01:30:08;101426.41;;;18.55;100.00
64544;BME280;50936;51.660;5.616;2022-07-21T01:32:38;101418.34;;;18.53;100.00
64544;BME280;50936;51.660;5.616;2022-07-21T01:35:09;101426.69;;;18.52;100.00
64544;BME280;50936;51.660;5.616;2022-07-21T01:37:42;101423.25;;;18.50;100.00
64544;BME280;50936;51.660;5.616;2022-07-21T01:40:12;101416.06;;;18.49;100.00
64544;BME280;50936;51.660;5.616;2022-07-21T01:42:58;101414.31;;;18.47;100.00
64544;BME280;50936;51.660;5.616;2022-07-21T01:45:26;101399.94;;;18.45;100.00
64544;BME280;50936;51.660;5.616;2022-07-21T01:47:53;101404.69;;;18.43;100.00
64544;BME280;50936;51.660;5.616;2022-07-21T01:50:22;101408.56;;;18.41;100.00
64544;BME280;50936;51.660;5.616;2022-07-21T01:52:55;101407.84;;;18.39;100.00
64544;BME280;50936;51.660;5.616;2022-07-21T01:55:23;101411.72;;;18.36;100.00
64544;BME280;50936;51.660;5.616;2022-07-21T01:57:52;101414.75;;;18.33;100.00
64544;BME280;50936;51.660;5.616;2022-07-21T02:00:19;101417.47;;;18.33;100.00
64544;BME280;50936;51.660;5.616;2022-07-21T02:02:46;101414.31;;;18.38;100.00
64544;BME280;50936;51.660;5.616;2022-07-21T02:05:13;101422.25;;;18.41;100.00
64544;BME280;50936;51.660;5.616;2022-07-21T02:07:40;101431.03;;;18.44;100.00
64544;BME280;50936;51.660;5.616;2022-07-21T02:10:07;101426.28;;;18.46;100.00
64544;BME280;50936;51.660;5.616;2022-07-21T02:12:34;101417.06;;;18.47;100.00
64544;BME280;50936;51.660;5.616;2022-07-21T02:15:01;101419.50;;;18.51;100.00
64544;BME280;50936;51.660;5.616;2022-07-21T02:17:29;101422.97;;;18.53;100.00
64544;BME280;50936;51.660;5.616;2022-07-21T02:19:55;101421.22;;;18.52;100.00
64544;BME280;50936;51.660;5.616;2022-07-21T02:22:22;101422.09;;;18.52;100.00
64544;BME280;50936;51.660;5.616;2022-07-21T02:24:49;101420.22;;;18.53;100.00
64544;BME280;50936;51.660;5.616;2022-07-21T02:27:16;101423.81;;;18.53;100.00
64544;BME280;50936;51.660;5.616;2022-07-21T02:29:44;101425.84;;;18.51;100.00
64544;BME280;50936;51.660;5.616;2022-07-21T02:32:11;101427.72;;;18.51;100.00
64544;BME280;50936;51.660;5.616;2022-07-21T02:34:37;101429.84;;;18.57;100.00
64544;BME280;50936;51.660;5.616;2022-07-21T02:37:04;101422.09;;;18.62;100.00
64544;BME280;50936;51.660;5.616;2022-07-21T02:39:32;101401.19;;;18.61;100.00
64544;BME280;50936;51.660;5.616;2022-07-21T02:41:58;101398.19;;;18.64;100.00
64544;BME280;50936;51.660;5.616;2022-07-21T02:44:25;101401.94;;;18.63;100.00
64544;BME280;50936;51.660;5.616;2022-07-21T02:46:52;101396.47;;;18.63;100.00
64544;BME280;50936;51.660;5.616;2022-07-21T02:49:19;101393.31;;;18.58;100.00
64544;BME280;50936;51.660;5.616;2022-07-21T02:51:46;101399.50;;;18.60;100.00
64544;BME280;50936;51.660;5.616;2022-07-21T02:54:13;101392.72;;;18.64;100.00
64544;BME280;50936;51.660;5.616;2022-07-21T02:56:40;101395.44;;;18.64;100.00
64544;BME280;50936;51.660;5.616;2022-07-21T02:59:06;101396.75;;;18.60;100.00
64544;BME280;50936;51.660;5.616;2022-07-21T03:01:33;101393.00;;;18.61;100.00
64544;BME280;50936;51.660;5.616;2022-07-21T03:04:00;101396.75;;;18.60;100.00
64544;BME280;50936;51.660;5.616;2022-07-21T03:06:27;101405.66;;;18.62;100.00
64544;BME280;50936;51.660;5.616;2022-07-21T03:08:54;101403.22;;;18.59;100.00
64544;BME280;50936;51.660;5.616;2022-07-21T03:11:21;101405.09;;;18.58;100.00
64544;BME280;50936;51.660;5.616;2022-07-21T03:13:48;101409.72;;;18.58;100.00
64544;BME280;50936;51.660;5.616;2022-07-21T03:16:15;101410.72;;;18.57;100.00
64544;BME280;50936;51.660;5.616;2022-07-21T03:18:42;101412.44;;;18.58;100.00
64544;BME280;50936;51.660;5.616;2022-07-21T03:21:09;101405.38;;;18.55;100.00
64544;BME280;50936;51.660;5.616;2022-07-21T03:23:36;101399.34;;;18.52;100.00
64544;BME280;50936;51.660;5.616;2022-07-21T03:26:03;101407.53;;;18.52;100.00
64544;BME280;50936;51.660;5.616;2022-07-21T03:28:30;101393.00;;;18.51;100.00
64544;BME280;50936;51.660;5.616;2022-07-21T03:30:57;101391.31;;;18.50;100.00
64544;BME280;50936;51.660;5.616;2022-07-21T03:33:24;101392.28;;;18.49;100.00
64544;BME280;50936;51.660;5.616;2022-07-21T03:35:51;101395.03;;;18.49;100.00
64544;BME280;50936;51.660;5.616;2022-07-21T03:38:17;101398.75;;;18.48;100.00
64544;BME280;50936;51.660;5.616;2022-07-21T03:40:44;101399.66;;;18.49;100.00
64544;BME280;50936;51.660;5.616;2022-07-21T03:43:11;101406.09;;;18.47;100.00
64544;BME280;50936;51.660;5.616;2022-07-21T03:45:38;101408.00;;;18.47;100.00
64544;BME280;50936;51.660;5.616;2022-07-21T03:48:06;101417.78;;;18.50;100.00
64544;BME280;50936;51.660;5.616;2022-07-21T03:50:35;101413.91;;;18.52;100.00
64544;BME280;50936;51.660;5.616;2022-07-21T03:53:04;101412.03;;;18.53;100.00
64544;BME280;50936;51.660;5.616;2022-07-21T03:55:31;101417.78;;;18.50;100.00
64544;BME280;50936;51.660;5.616;2022-07-21T03:58:01;101410.59;;;18.49;100.00
64544;BME280;50936;51.660;5.616;2022-07-21T04:00:40;101410.28;;;18.52;100.00
64544;BME280;50936;51.660;5.616;2022-07-21T04:03:10;101406.53;;;18.53;100.00
64544;BME280;50936;51.660;5.616;2022-07-21T04:05:40;101410.00;;;18.55;100.00
64544;BME280;50936;51.660;5.616;2022-07-21T04:08:09;101406.97;;;18.58;100.00
64544;BME280;50936;51.660;5.616;2022-07-21T04:10:39;101405.97;;;18.59;100.00
64544;BME280;50936;51.660;5.616;2022-07-21T04:13:10;101410.44;;;18.60;100.00
64544;BME280;50936;51.660;5.616;2022-07-21T04:15:39;101409.41;;;18.61;100.00
64544;BME280;50936;51.660;5.616;2022-07-21T04:18:07;101411.16;;;18.62;100.00
64544;BME280;50936;51.660;5.616;2022-07-21T04:20:33;101408.41;;;18.62;100.00
64544;BME280;50936;51.660;5.616;2022-07-21T04:23:00;101406.53;;;18.62;100.00
64544;BME280;50936;51.660;5.616;2022-07-21T04:25:27;101405.66;;;18.62;100.00
64544;BME280;50936;51.660;5.616;2022-07-21T04:27:57;101403.66;;;18.64;100.00
64544;BME280;50936;51.660;5.616;2022-07-21T04:30:24;101404.69;;;18.63;100.00
64544;BME280;50936;51.660;5.616;2022-07-21T04:32:51;101406.84;;;18.59;100.00
64544;BME280;50936;51.660;5.616;2022-07-21T04:35:19;101409.72;;;18.58;100.00
64544;BME280;50936;51.660;5.616;2022-07-21T04:37:47;101407.97;;;18.57;100.00
64544;BME280;50936;51.660;5.616;2022-07-21T04:40:15;101407.97;;;18.57;100.00
64544;BME280;50936;51.660;5.616;2022-07-21T04:42:42;101407.97;;;18.57;100.00
64544;BME280;50936;51.660;5.616;2022-07-21T04:45:12;101407.97;;;18.57;100.00
64544;BME280;50936;51.660;5.616;2022-07-21T04:47:52;101405.25;;;18.57;100.00
64544;BME280;50936;51.660;5.616;2022-07-21T04:50:23;101406.25;;;18.56;100.00
64544;BME280;50936;51.660;5.616;2022-07-21T04:52:53;101401.66;;;18.56;100.00
64544;BME280;50936;51.660;5.616;2022-07-21T04:55:21;101411.75;;;18.56;100.00
64544;BME280;50936;51.660;5.616;2022-07-21T04:57:50;101407.25;;;18.55;100.00
64544;BME280;50936;51.660;5.616;2022-07-21T05:00:21;101411.75;;;18.56;100.00
64544;BME280;50936;51.660;5.616;2022-07-21T05:02:52;101410.00;;;18.55;100.00
64544;BME280;50936;51.660;5.616;2022-07-21T05:05:19;101415.75;;;18.52;100.00
64544;BME280;50936;51.660;5.616;2022-07-21T05:07:46;101420.09;;;18.44;100.00
64544;BME280;50936;51.660;5.616;2022-07-21T05:10:15;101417.19;;;18.36;100.00
64544;BME280;50936;51.660;5.616;2022-07-21T05:12:42;101415.19;;;18.28;100.00
64544;BME280;50936;51.660;5.616;2022-07-21T05:15:10;101412.88;;;18.24;100.00
64544;BME280;50936;51.660;5.616;2022-07-21T05:17:39;101410.28;;;18.22;100.00
64544;BME280;50936;51.660;5.616;2022-07-21T05:20:08;101408.69;;;18.20;100.00
64544;BME280;50936;51.660;5.616;2022-07-21T05:22:36;101400.50;;;18.20;100.00
64544;BME280;50936;51.660;5.616;2022-07-21T05:25:04;101413.19;;;18.21;100.00
64544;BME280;50936;51.660;5.616;2022-07-21T05:27:33;101415.91;;;18.21;100.00
64544;BME280;50936;51.660;5.616;2022-07-21T05:30:00;101409.41;;;18.22;100.00
64544;BME280;50936;51.660;5.616;2022-07-21T05:32:27;101407.53;;;18.22;100.00
64544;BME280;50936;51.660;5.616;2022-07-21T05:34:54;101403.41;;;18.28;100.00
64544;BME280;50936;51.660;5.616;2022-07-21T05:37:21;101402.38;;;18.29;100.00
64544;BME280;50936;51.660;5.616;2022-07-21T05:39:47;101405.09;;;18.29;100.00
64544;BME280;50936;51.660;5.616;2022-07-21T05:42:14;101398.66;;;18.30;100.00
64544;BME280;50936;51.660;5.616;2022-07-21T05:44:41;101393.91;;;18.32;100.00
64544;BME280;50936;51.660;5.616;2022-07-21T05:47:08;101403.81;;;18.33;100.00
64544;BME280;50936;51.660;5.616;2022-07-21T05:49:35;101402.53;;;18.37;100.00
64544;BME280;50936;51.660;5.616;2022-07-21T05:52:02;101403.25;;;18.39;100.00
64544;BME280;50936;51.660;5.616;2022-07-21T05:54:28;101399.50;;;18.40;100.00
64544;BME280;50936;51.660;5.616;2022-07-21T05:56:55;101402.22;;;18.40;100.00
64544;BME280;50936;51.660;5.616;2022-07-21T05:59:22;101402.94;;;18.42;100.00
64544;BME280;50936;51.660;5.616;2022-07-21T06:01:49;101393.75;;;18.43;100.00
64544;BME280;50936;51.660;5.616;2022-07-21T06:04:16;101396.19;;;18.46;100.00
64544;BME280;50936;51.660;5.616;2022-07-21T06:06:43;101405.13;;;18.49;100.00
64544;BME280;50936;51.660;5.616;2022-07-21T06:09:09;101403.38;;;18.47;100.00
64544;BME280;50936;51.660;5.616;2022-07-21T06:11:36;101408.84;;;18.47;100.00
64544;BME280;50936;51.660;5.616;2022-07-21T06:14:04;101391.44;;;18.49;100.00
64544;BME280;50936;51.660;5.616;2022-07-21T06:16:31;101399.34;;;18.52;100.00
64544;BME280;50936;51.660;5.616;2022-07-21T06:18:59;101400.78;;;18.56;100.00
64544;BME280;50936;51.660;5.616;2022-07-21T06:21:28;101398.78;;;18.58;100.00
64544;BME280;50936;51.660;5.616;2022-07-21T06:23:55;101401.38;;;18.59;100.00
64544;BME280;50936;51.660;5.616;2022-07-21T06:26:25;101399.22;;;18.63;100.00
64544;BME280;50936;51.660;5.616;2022-07-21T06:28:53;101399.91;;;18.65;100.00
64544;BME280;50936;51.660;5.616;2022-07-21T06:31:20;101407.09;;;18.66;100.00
64544;BME280;50936;51.660;5.616;2022-07-21T06:33:47;101408.84;;;18.67;100.00
64544;BME280;50936;51.660;5.616;2022-07-21T06:36:16;101412.00;;;18.72;100.00
64544;BME280;50936;51.660;5.616;2022-07-21T06:38:43;101414.75;;;18.72;100.00
64544;BME280;50936;51.660;5.616;2022-07-21T06:41:11;101422.63;;;18.75;100.00
64544;BME280;50936;51.660;5.616;2022-07-21T06:43:38;101413.44;;;18.76;100.00
64544;BME280;50936;51.660;5.616;2022-07-21T06:46:05;101415.59;;;18.82;100.00
64544;BME280;50936;51.660;5.616;2022-07-21T06:48:32;101408.81;;;18.96;100.00
64544;BME280;50936;51.660;5.616;2022-07-21T06:50:59;101403.75;;;19.11;100.00
64544;BME280;50936;51.660;5.616;2022-07-21T06:53:27;101410.28;;;19.38;100.00
64544;BME280;50936;51.660;5.616;2022-07-21T06:55:54;101398.94;;;19.60;100.00
64544;BME280;50936;51.660;5.616;2022-07-21T06:58:29;101408.53;;;19.74;100.00
64544;BME280;50936;51.660;5.616;2022-07-21T07:01:06;101410.53;;;19.82;100.00
64544;BME280;50936;51.660;5.616;2022-07-21T07:03:34;101413.50;;;19.89;100.00
64544;BME280;50936;51.660;5.616;2022-07-21T07:06:02;101411.63;;;19.89;100.00
64544;BME280;50936;51.660;5.616;2022-07-21T07:08:31;101409.28;;;19.94;100.00
64544;BME280;50936;51.660;5.616;2022-07-21T07:10:58;101411.56;;;19.99;100.00
64544;BME280;50936;51.660;5.616;2022-07-21T07:13:25;101412.41;;;19.99;100.00
64544;BME280;50936;51.660;5.616;2022-07-21T07:16:12;101412.00;;;19.94;100.00
64544;BME280;50936;51.660;5.616;2022-07-21T07:18:39;101415.09;;;19.91;100.00
64544;BME280;50936;51.660;5.616;2022-07-21T07:21:06;101413.06;;;19.93;100.00
64544;BME280;50936;51.660;5.616;2022-07-21T07:23:38;101413.53;;;20.07;100.00
64544;BME280;50936;51.660;5.616;2022-07-21T07:26:06;101404.66;;;20.13;100.00
64544;BME280;50936;51.660;5.616;2022-07-21T07:28:34;101408.84;;;20.17;100.00
64544;BME280;50936;51.660;5.616;2022-07-21T07:31:01;101413.16;;;20.19;100.00
64544;BME280;50936;51.660;5.616;2022-07-21T07:33:28;101414.00;;;20.20;100.00
64544;BME280;50936;51.660;5.616;2022-07-21T07:35:55;101424.75;;;20.13;100.00
64544;BME280;50936;51.660;5.616;2022-07-21T07:38:23;101425.53;;;20.06;100.00
64544;BME280;50936;51.660;5.616;2022-07-21T07:40:50;101420.66;;;19.99;100.00
64544;BME280;50936;51.660;5.616;2022-07-21T07:43:17;101414.47;;;19.97;100.00
64544;BME280;50936;51.660;5.616;2022-07-21T07:45:44;101417.06;;;19.99;100.00
64544;BME280;50936;51.660;5.616;2022-07-21T07:48:11;101419.66;;;20.00;100.00
64544;BME280;50936;51.660;5.616;2022-07-21T07:50:38;101415.56;;;20.05;100.00
64544;BME280;50936;51.660;5.616;2022-07-21T07:53:05;101421.59;;;20.08;100.00
64544;BME280;50936;51.660;5.616;2022-07-21T07:55:32;101421.31;;;20.11;100.00
64544;BME280;50936;51.660;5.616;2022-07-21T07:57:59;101418.38;;;20.13;100.00
64544;BME280;50936;51.660;5.616;2022-07-21T08:00:26;101423.31;;;20.09;100.00
64544;BME280;50936;51.660;5.616;2022-07-21T08:03:13;101425.69;;;20.04;100.00
64544;BME280;50936;51.660;5.616;2022-07-21T08:05:40;101426.13;;;19.99;100.00
64544;BME280;50936;51.660;5.616;2022-07-21T08:08:06;101436.69;;;19.94;100.00
64544;BME280;50936;51.660;5.616;2022-07-21T08:10:33;101428.09;;;19.89;100.00
64544;BME280;50936;51.660;5.616;2022-07-21T08:13:14;101430.41;;;19.84;100.00
64544;BME280;50936;51.660;5.616;2022-07-21T08:15:44;101434.50;;;19.80;100.00
64544;BME280;50936;51.660;5.616;2022-07-21T08:18:12;101434.78;;;19.77;100.00
64544;BME280;50936;51.660;5.616;2022-07-21T08:20:41;101435.06;;;19.74;100.00
64544;BME280;50936;51.660;5.616;2022-07-21T08:23:08;101435.06;;;19.74;100.00
64544;BME280;50936;51.660;5.616;2022-07-21T08:25:37;101444.91;;;19.76;100.00
64544;BME280;50936;51.660;5.616;2022-07-21T08:28:05;101439.72;;;19.73;100.00
64544;BME280;50936;51.660;5.616;2022-07-21T08:30:33;101441.44;;;19.65;100.00
64544;BME280;50936;51.660;5.616;2022-07-21T08:33:01;101444.38;;;19.53;100.00
64544;BME280;50936;51.660;5.616;2022-07-21T08:35:29;101441.69;;;19.34;100.00
64544;BME280;50936;51.660;5.616;2022-07-21T08:37:58;101451.16;;;19.02;100.00
64544;BME280;50936;51.660;5.616;2022-07-21T08:40:31;101457.50;;;18.73;100.00
64544;BME280;50936;51.660;5.616;2022-07-21T08:43:02;101452.06;;;18.54;100.00
64544;BME280;50936;51.660;5.616;2022-07-21T08:45:30;101448.72;;;18.40;100.00
64544;BME280;50936;51.660;5.616;2022-07-21T08:47:58;101450.59;;;18.30;100.00
64544;BME280;50936;51.660;5.616;2022-07-21T08:50:29;101445.25;;;18.19;100.00
64544;BME280;50936;51.660;5.616;2022-07-21T08:52:58;101439.91;;;18.07;100.00
64544;BME280;50936;51.660;5.616;2022-07-21T08:55:34;101439.03;;;17.97;100.00
64544;BME280;50936;51.660;5.616;2022-07-21T08:58:03;101439.88;;;17.88;100.00
64544;BME280;50936;51.660;5.616;2022-07-21T09:00:37;101434.69;;;17.85;100.00
64544;BME280;50936;51.660;5.616;2022-07-21T09:05:41;101439.53;;;17.81;100.00
64544;BME280;50936;51.660;5.616;2022-07-21T09:08:09;101438.66;;;17.81;100.00
64544;BME280;50936;51.660;5.616;2022-07-21T09:10:36;101433.19;;;17.81;100.00
64544;BME280;50936;51.660;5.616;2022-07-21T09:13:06;101432.91;;;17.84;100.00
64544;BME280;50936;51.660;5.616;2022-07-21T09:15:34;101438.84;;;17.89;100.00
64544;BME280;50936;51.660;5.616;2022-07-21T09:18:15;101426.63;;;17.93;100.00
64544;BME280;50936;51.660;5.616;2022-07-21T09:20:49;101431.09;;;17.94;100.00
64544;BME280;50936;51.660;5.616;2022-07-21T09:23:20;101433.56;;;17.97;100.00
64544;BME280;50936;51.660;5.616;2022-07-21T09:25:54;101439.88;;;17.98;100.00
64544;BME280;50936;51.660;5.616;2022-07-21T09:28:25;101436.28;;;17.97;100.00
64544;BME280;50936;51.660;5.616;2022-07-21T09:31:08;101444.06;;;18.02;100.00
64544;BME280;50936;51.660;5.616;2022-07-21T09:33:42;101448.97;;;18.08;100.00
64544;BME280;50936;51.660;5.616;2022-07-21T09:36:12;101458.75;;;18.11;100.00
64544;BME280;50936;51.660;5.616;2022-07-21T09:38:54;101457.00;;;18.09;100.00
64544;BME280;50936;51.660;5.616;2022-07-21T09:41:25;101460.63;;;18.10;100.00
64544;BME280;50936;51.660;5.616;2022-07-21T09:43:54;101463.22;;;18.12;100.00
64544;BME280;50936;51.660;5.616;2022-07-21T09:46:28;101465.66;;;18.15;100.00
64544;BME280;50936;51.660;5.616;2022-07-21T09:48:59;101468.84;;;18.20;100.00
64544;BME280;50936;51.660;5.616;2022-07-21T09:51:48;101469.88;;;18.19;100.00
64544;BME280;50936;51.660;5.616;2022-07-21T09:54:15;101471.59;;;18.20;100.00
64544;BME280;50936;51.660;5.616;2022-07-21T09:56:44;101471.72;;;18.18;100.00
64544;BME280;50936;51.660;5.616;2022-07-21T09:59:13;101470.00;;;18.17;100.00
64544;BME280;50936;51.660;5.616;2022-07-21T10:01:40;101473.88;;;18.15;100.00
64544;BME280;50936;51.660;5.616;2022-07-21T10:04:08;101470.41;;;18.13;100.00
64544;BME280;50936;51.660;5.616;2022-07-21T10:06:37;101477.88;;;18.11;100.00
64544;BME280;50936;51.660;5.616;2022-07-21T10:09:08;101475.03;;;18.12;100.00
64544;BME280;50936;51.660;5.616;2022-07-21T10:11:39;101483.94;;;18.14;100.00
64544;BME280;50936;51.660;5.616;2022-07-21T10:14:11;101483.09;;;18.14;100.00
64544;BME280;50936;51.660;5.616;2022-07-21T10:16:39;101486.81;;;18.13;100.00
64544;BME280;50936;51.660;5.616;2022-07-21T10:21:59;101485.63;;;18.05;100.00
64544;BME280;50936;51.660;5.616;2022-07-21T10:24:42;101491.53;;;18.01;100.00
64544;BME280;50936;51.660;5.616;2022-07-21T10:27:11;101499.59;;;18.02;100.00
64544;BME280;50936;51.660;5.616;2022-07-21T10:32:16;101500.16;;;17.96;100.00
64544;BME280;50936;51.660;5.616;2022-07-21T10:34:44;101503.31;;;17.92;100.00
64544;BME280;50936;51.660;5.616;2022-07-21T10:45:30;101513.72;;;17.77;100.00
64544;BME280;50936;51.660;5.616;2022-07-21T10:47:59;101509.97;;;17.78;100.00
64544;BME280;50936;51.660;5.616;2022-07-21T10:50:39;101518.88;;;17.80;100.00
64544;BME280;50936;51.660;5.616;2022-07-21T10:53:16;101520.34;;;17.84;100.00
64544;BME280;50936;51.660;5.616;2022-07-21T10:55:52;101513.66;;;17.88;100.00
64544;BME280;50936;51.660;5.616;2022-07-21T10:58:26;101523.56;;;17.89;100.00
64544;BME280;50936;51.660;5.616;2022-07-21T11:00:58;101518.97;;;17.89;100.00
64544;BME280;50936;51.660;5.616;2022-07-21T11:03:39;101516.38;;;17.88;100.00
64544;BME280;50936;51.660;5.616;2022-07-21T11:09:05;101520.34;;;17.84;100.00
64544;BME280;50936;51.660;5.616;2022-07-21T11:14:16;101526.69;;;17.84;100.00
64544;BME280;50936;51.660;5.616;2022-07-21T11:19:34;101524.34;;;17.80;100.00
64544;BME280;50936;51.660;5.616;2022-07-21T11:25:09;101528.38;;;17.76;100.00
64544;BME280;50936;51.660;5.616;2022-07-21T11:27:37;101532.09;;;17.75;100.00
64544;BME280;50936;51.660;5.616;2022-07-21T11:30:07;101531.50;;;17.71;100.00
64544;BME280;50936;51.660;5.616;2022-07-21T11:32:36;101530.63;;;17.70;100.00
64544;BME280;50936;51.660;5.616;2022-07-21T11:35:05;101534.38;;;17.69;100.00
64544;BME280;50936;51.660;5.616;2022-07-21T11:37:39;101536.38;;;17.67;100.00
64544;BME280;50936;51.660;5.616;2022-07-21T11:42:41;101535.63;;;17.65;100.00
64544;BME280;50936;51.660;5.616;2022-07-21T11:45:10;101532.91;;;17.65;100.00
64544;BME280;50936;51.660;5.616;2022-07-21T11:47:38;101543.84;;;17.65;100.00
64544;BME280;50936;51.660;5.616;2022-07-21T11:50:08;101542.13;;;17.64;100.00
64544;BME280;50936;51.660;5.616;2022-07-21T11:52:38;101531.31;;;17.63;100.00
64544;BME280;50936;51.660;5.616;2022-07-21T11:55:08;101533.19;;;17.62;100.00
64544;BME280;50936;51.660;5.616;2022-07-21T11:57:41;101533.19;;;17.62;100.00
64544;BME280;50936;51.660;5.616;2022-07-21T12:00:10;101530.19;;;17.65;100.00
64544;BME280;50936;51.660;5.616;2022-07-21T12:02:38;101531.78;;;17.68;100.00
64544;BME280;50936;51.660;5.616;2022-07-21T12:05:07;101538.38;;;17.65;100.00
64544;BME280;50936;51.660;5.616;2022-07-21T12:07:42;101529.44;;;17.63;100.00
64544;BME280;50936;51.660;5.616;2022-07-21T12:10:14;101526.00;;;17.61;100.00
64544;BME280;50936;51.660;5.616;2022-07-21T12:13:05;101528.94;;;17.69;100.00
64544;BME280;50936;51.660;5.616;2022-07-21T12:15:34;101524.66;;;17.77;100.00
64544;BME280;50936;51.660;5.616;2022-07-21T12:18:20;101537.03;;;17.81;100.00
64544;BME280;50936;51.660;5.616;2022-07-21T12:21:01;101534.78;;;17.86;100.00
64544;BME280;50936;51.660;5.616;2022-07-21T12:23:30;101536.81;;;17.94;100.00
64544;BME280;50936;51.660;5.616;2022-07-21T12:25:59;101539.13;;;17.98;100.00
64544;BME280;50936;51.660;5.616;2022-07-21T12:28:48;101537.13;;;18.00;100.00
64544;BME280;50936;51.660;5.616;2022-07-21T12:31:21;101535.94;;;17.93;100.00
64544;BME280;50936;51.660;5.616;2022-07-21T12:33:53;101540.41;;;17.94;100.00
64544;BME280;50936;51.660;5.616;2022-07-21T12:36:45;101535.09;;;17.93;100.00
64544;BME280;50936;51.660;5.616;2022-07-21T12:39:25;101543.16;;;17.94;100.00
64544;BME280;50936;51.660;5.616;2022-07-21T12:42:28;101541.69;;;17.90;100.00
64544;BME280;50936;51.660;5.616;2022-07-21T12:45:16;101544.19;;;17.82;100.00
64544;BME280;50936;51.660;5.616;2022-07-21T12:48:07;101544.75;;;17.76;100.00
64544;BME280;50936;51.660;5.616;2022-07-21T12:50:36;101544.75;;;17.76;100.00
64544;BME280;50936;51.660;5.616;2022-07-21T12:53:14;101555.44;;;17.79;100.00
64544;BME280;50936;51.660;5.616;2022-07-21T12:55:41;101551.69;;;17.80;100.00
64544;BME280;50936;51.660;5.616;2022-07-21T12:58:08;101544.75;;;17.76;100.00
64544;BME280;50936;51.660;5.616;2022-07-21T13:00:35;101544.75;;;17.76;100.00
64544;BME280;50936;51.660;5.616;2022-07-21T13:03:02;101557.13;;;17.80;100.00
64544;BME280;50936;51.660;5.616;2022-07-21T13:05:29;101545.94;;;17.83;100.00
64544;BME280;50936;51.660;5.616;2022-07-21T13:07:55;101548.88;;;17.91;100.00
64544;BME280;50936;51.660;5.616;2022-07-21T13:10:23;101554.81;;;17.96;100.00
64544;BME280;50936;51.660;5.616;2022-07-21T13:12:50;101557.41;;;17.98;100.00
64544;BME280;50936;51.660;5.616;2022-07-21T13:15:17;101554.06;;;17.94;100.00
64544;BME280;50936;51.660;5.616;2022-07-21T13:17:44;101556.09;;;17.92;100.00
64544;BME280;50936;51.660;5.616;2022-07-21T13:20:12;101552.34;;;17.93;100.00
64544;BME280;50936;51.660;5.616;2022-07-21T13:22:40;101556.09;;;17.92;100.00